Tiempo atmosférico en la estación meteorológica de Las Palmas de Gran Canaria, San Cristobal, Las Palmas (55 m.)



Fecha
DESCASC
Temp. máxima en grados centígrados (hora)
DESCASC
Temp. mínima en grados centígrados (hora)
DESCASC
Temp. media en grados centígrados
DESCASC
Racha de viento máxima en m/sg (hora)
DESCASC
Velocidad máxima media en intervalos de 10 minutos(hora)
DESCASC
Precipitaciones diarias en mm
DESCASC
Precipitaciones de 00:00 a 06:00 en mm
DESCASC
Precipitaciones de 06:00 a 12:00 en mm
DESCASC
Precipitaciones de 12:00 a 18:00 en mm
DESCASC
Precipitaciones de 18:00 a 24:00 en mm
DESCASC
05-04-2020 28.7 (14:10) 17.8 (06:00) 23.3 6.94 (21:20) 4.17 (21:50) 0 0 0 0 0
04-04-2020 26.8 (17:40) 17.7 (07:40) 22.3 8.61 (13:50) 4.44 (12:10) 0 0 0 0 0
03-04-2020 23.7 (11:50) 16.1 (07:40) 19.9 9.17 (15:20) 3.89 (15:20) 0 0 0 0 0
02-04-2020 23.6 (11:00) 16.7 (00:00) 20.2 6.67 (20:50) 3.89 (13:40) 0 0 0 0 0
01-04-2020 21.6 (12:30) 17.3 (00:00) 19.4 6.67 (15:00) 3.89 (13:10) 0 0 0 0 0
31-03-2020 24.5 (10:10) 16.3 (00:00) 20.4 6.11 (12:00) 3.89 (11:50) 0 0 0 0 0
30-03-2020 25.2 (13:10) 15.5 (00:00) 20.4 5.28 (06:50) 3.89 (04:40) 0 0 0 0 0
29-03-2020 23.6 (16:40) 15.4 (00:00) 19.5 4.72 (03:10) 3.89 (03:30) 0 0 0 0 0
28-03-2020 21 (14:50) 15.4 (00:00) 18.2 12.22 (02:30) 5.56 (02:10) 0.1 0.1 0 0 0
27-03-2020 20.7 (15:20) 14.4 (00:00) 17.6 12.78 (10:20) 6.67 (09:50) 13.4 0 0 5.3 8.1
26-03-2020 21.3 (09:10) 15.6 (00:00) 18.4 5.83 (13:30) 3.89 (12:30) 0 0 0 0 0
25-03-2020 20.6 (11:00) 16.5 (00:00) 18.6 12.78 (02:30) 5 (02:10) 0 0 0 0 0
24-03-2020 20.6 (15:20) 15.8 (00:00) 18.2 14.17 (07:50) 9.17 (00:50) 0.1 0.1 0 0 0
23-03-2020 19.1 (14:40) 12.4 (00:00) 15.8 24.72 (20:00) 12.22 (07:10) 6.8 2.2 1.9 0.1 2.6
22-03-2020 20.6 (15:50) 13.6 (19:20) 17.1 16.11 (16:50) 8.89 (18:10) 1.2 0 0 0.3 0.9
21-03-2020 19 (14:10) 15 (00:00) 17 11.67 (21:40) 6.67 (03:40) 0.3 0.1 0 0 0.2
20-03-2020 19.9 (13:40) 15.9 (00:00) 17.9 12.5 (12:00) 8.61 (12:10) 0 0 0 0 0
19-03-2020 20.8 (13:20) 16.5 (00:00) 18.6 17.78 (02:00) 11.39 (03:10) 0.4 0.2 0.2 0 0
18-03-2020 19.7 (15:30) 13.8 (00:00) 16.8 19.44 (21:00) 11.11 (23:50) 0.2 0.2 0 0 0
17-03-2020 18.7 (17:10) 13.6 (00:00) 16.2 13.06 (04:20) 7.5 (18:20) 0.5 0.1 0.1 0.1 0.2
16-03-2020 20.9 (11:30) 16.2 (00:00) 18.6 13.61 (21:40) 7.5 (18:20) 0.1 0 0 0.1 0
15-03-2020 20.4 (12:30) 14.7 (00:00) 17.5 11.94 (16:20) 8.06 (18:40) 0 0 0 0 0
14-03-2020 20.5 (11:50) 16.9 (00:00) 18.7 10.56 (18:30) 5.56 (18:00) 0 0 0 0 0
13-03-2020 20.9 (14:30) 17.2 (07:10) 19.1 8.33 (00:10) 4.72 (19:20) 0 0 0 0 0
12-03-2020 25.3 (13:30) 16.3 (00:00) 20.8 7.78 (22:40) 5.28 (23:20) 0 0 0 0 0
11-03-2020 25.7 (15:00) 16.4 (00:00) 21.1 6.39 (22:30) 3.89 (22:20) 0 0 0 0 0
10-03-2020 22.9 (14:00) 15.9 (00:00) 19.4 6.67 (06:50) 4.72 (02:10) 0 0 0 0 0
09-03-2020 24.1 (13:50) 17 (00:00) 20.6 7.78 (22:50) 5.28 (07:40) 0 0 0 0 0

Gráficas

Temp. máximas Temp. mínimas Temp. medias Precipitaciones Rachas de viento máximas Velocidades máximas media en intervalos de 10 minutos

Datos horarios

Fecha y hora oficial Temperatura (ºC) Velocidad del viento (km/h) Dirección del viento Racha (km/h) Dirección de racha Precipitación (mm) Presión (hPa) Tendencia (hPa) Humedad (%)
2020-04-07 23:00:00 19.4 19 Noroeste 31 Noroeste 0 -- -- 75
2020-04-07 22:00:00 19.5 17 Noroeste 37 Noroeste 0 -- -- 74
2020-04-07 21:00:00 19.5 17 Noroeste 35 Noroeste 0 -- -- 76
2020-04-07 20:00:00 20.4 21 Noroeste 32 Norte 0 -- -- 76
2020-04-07 19:00:00 21 13 Noroeste 27 Oeste 0 -- -- 68
2020-04-07 18:00:00 20.8 14 Nordeste 26 Nordeste 0 -- -- 72
2020-04-07 17:00:00 21.5 10 Nordeste 22 Nordeste 0 -- -- 68
2020-04-07 16:00:00 21.3 11 Nordeste 21 Nordeste 0 -- -- 69
2020-04-07 15:00:00 22.2 9 Nordeste 23 Nordeste 0 -- -- 68
2020-04-07 14:00:00 21.2 12 Nordeste 23 Nordeste 0 -- -- 70
2020-04-07 13:00:00 21.3 12 Nordeste 22 Nordeste 0 -- -- 69
2020-04-07 12:00:00 22.1 7 Nordeste 19 Nordeste 0 -- -- 68
2020-04-07 11:00:00 21.1 8 Nordeste 19 Nordeste 0 -- -- 69
2020-04-07 10:00:00 21.2 7 Norte 14 Nordeste 0 -- -- 72
2020-04-07 09:00:00 19.9 4 Norte 10 Noroeste 0 -- -- 79
2020-04-07 08:00:00 18.8 8 Noroeste 17 Noroeste 0 -- -- 81
2020-04-07 07:00:00 18.7 12 Noroeste 20 Noroeste 0 -- -- 81
2020-04-07 06:00:00 18.8 12 Noroeste 21 Noroeste 0 -- -- 81
2020-04-07 05:00:00 18.9 13 Noroeste 24 Noroeste 0 -- -- 81
2020-04-07 04:00:00 18.9 14 Noroeste 26 Noroeste 0 -- -- 81
2020-04-07 03:00:00 19.1 12 Noroeste 23 Noroeste 0 -- -- 80
2020-04-07 02:00:00 19.1 14 Noroeste 26 Noroeste 0 -- -- 80
2020-04-07 01:00:00 19 17 Noroeste 27 Noroeste 0 -- -- 80
2020-04-07 00:00:00 19.3 15 Noroeste 26 Noroeste 0 -- -- 80
2020-04-06 23:00:00 19.6 13 Noroeste 32 Noroeste 0 -- -- 79
2020-04-06 22:00:00 19.6 16 Noroeste 31 Noroeste 0 -- -- 78
2020-04-06 21:00:00 19.9 14 Noroeste 29 Noroeste 0 -- -- 77
2020-04-06 20:00:00 19.9 19 Noroeste 30 Noroeste 0 -- -- 77
2020-04-06 19:00:00 20.3 15 Noroeste 35 Noroeste 0 -- -- 73
2020-04-06 18:00:00 21.1 17 Noroeste 31 Noroeste 0 -- -- 69
2020-04-06 17:00:00 22.3 10 Noroeste 26 Noroeste 0 -- -- 63
2020-04-06 16:00:00 22.3 9 Norte 29 Noroeste 0 -- -- 61
2020-04-06 15:00:00 22 17 Noroeste 30 Noroeste 0 -- -- 66
2020-04-06 14:00:00 21.8 10 Noroeste 28 Noroeste 0 -- -- 63
2020-04-06 13:00:00 20.9 14 Norte 35 Noroeste 0 -- -- 66
2020-04-06 12:00:00 20.8 21 Noroeste 35 Noroeste 0 -- -- 68
2020-04-06 11:00:00 21.1 19 Noroeste 32 Noroeste 0 -- -- 67
2020-04-06 10:00:00 20.7 13 Noroeste 24 Noroeste 0 -- -- 73
2020-04-06 09:00:00 19.8 13 Noroeste 21 Noroeste 0 -- -- 76
2020-04-06 08:00:00 20 14 Noroeste 32 Noroeste 0 -- -- 70
2020-04-06 07:00:00 20.8 15 Noroeste 31 Noroeste 0 -- -- 69
2020-04-06 06:00:00 19.5 15 Noroeste 25 Noroeste 0 -- -- 74
2020-04-06 05:00:00 19.4 11 Noroeste 26 Noroeste 0 -- -- 76
2020-04-06 04:00:00 19.2 17 Noroeste 33 Noroeste 0 -- -- 81
2020-04-06 03:00:00 19.5 17 Noroeste 30 Noroeste 0 -- -- 81
2020-04-06 02:00:00 19.5 19 Noroeste 31 Noroeste 0 -- -- 83
2020-04-06 01:00:00 19.7 11 Noroeste 23 Noroeste 0 -- -- 81
2020-04-06 00:00:00 20.1 12 Noroeste 21 Noroeste 0 -- -- 79
2020-04-05 23:00:00 20.3 13 Noroeste 24 Noroeste 0 -- -- 74
2020-04-05 22:00:00 20.3 14 Noroeste 25 Noroeste 0 -- -- 73
2020-04-05 21:00:00 20.8 13 Noroeste 21 Noroeste 0 -- -- 70
2020-04-05 20:00:00 21.3 7 Noroeste 17 Noroeste 0 -- -- 67
2020-04-05 19:00:00 24.6 4 Este 10 Sudeste 0 -- -- 57
2020-04-05 18:00:00 25.3 3 Sudeste 10 Sudeste 0 -- -- 56
2020-04-05 17:00:00 26.9 6 Sudeste 11 Sudeste 0 -- -- 53
2020-04-05 16:00:00 27.5 6 Sudeste 12 Sudeste 0 -- -- 52
2020-04-05 15:00:00 27.3 6 Sudeste 12 Sudeste 0 -- -- 53
2020-04-05 14:00:00 26.2 4 Sudeste 12 Sudeste 0 -- -- 54
2020-04-05 13:00:00 23.3 9 Sudeste 14 Sudeste 0 -- -- 61
2020-04-05 12:00:00 27 4 Sudeste 10 Sudeste 0 -- -- 52
2020-04-05 11:00:00 24.2 6 Sudeste 9 Sudeste 0 -- -- 57
2020-04-05 10:00:00 24.9 0 Calma 5 Nordeste 0 -- -- 53
2020-04-05 09:00:00 20.6 3 Sur 8 Sur 0 -- -- 74
2020-04-05 08:00:00 18.4 0 Calma 10 Oeste 0 -- -- 76
2020-04-05 07:00:00 18.4 8 Oeste 18 Oeste 0 -- -- 72
2020-04-05 06:00:00 17.9 12 Oeste 16 Oeste 0 -- -- 75
2020-04-05 05:00:00 18.6 7 Sur 10 Sur 0 -- -- 78
2020-04-05 04:00:00 18.4 7 Oeste 12 Noroeste 0 -- -- 76
2020-04-05 03:00:00 18.6 0 Calma 2 Sur 0 -- -- 78
2020-04-05 02:00:00 19 0 Calma 9 Oeste 0 -- -- 76
2020-04-05 01:00:00 19.2 5 Oeste 10 Oeste 0 -- -- 75
2020-04-05 00:00:00 19.3 5 Oeste 9 Oeste 0 -- -- 76
2020-04-04 23:00:00 19.3 0 Calma 8 Sudeste 0 -- -- 79
2020-04-04 22:00:00 19.9 0 Calma 9 Sudeste 0 -- -- 77
2020-04-04 21:00:00 20.2 5 Sudeste 12 Sudeste 0 -- -- 74
2020-04-04 20:00:00 21.2 4 Sudeste 11 Este 0 -- -- 69
2020-04-04 19:00:00 23 6 Sudeste 11 Este 0 -- -- 66
2020-04-04 18:00:00 25 2 Sudeste 14 Nordeste 0 -- -- 59
2020-04-04 17:00:00 22.5 9 Nordeste 22 Nordeste 0 -- -- 64
2020-04-04 16:00:00 21.2 12 Nordeste 25 Norte 0 -- -- 68
2020-04-04 15:00:00 22.9 10 Norte 27 Norte 0 -- -- 61
2020-04-04 14:00:00 21.5 14 Norte 31 Noroeste 0 -- -- 61
2020-04-04 13:00:00 26 7 Sudeste 22 Sur 0 -- -- 59
2020-04-04 12:00:00 22.3 14 Sur 22 Sur 0 -- -- 64
2020-04-04 11:00:00 21.1 11 Norte 16 Norte 0 -- -- 64
2020-04-04 10:00:00 20.9 10 Noroeste 21 Noroeste 0 -- -- 64
2020-04-04 09:00:00 19.4 14 Oeste 20 Oeste 0 -- -- 68
2020-04-04 08:00:00 18.8 5 Oeste 9 Oeste 0 -- -- 71
2020-04-04 07:00:00 18.1 0 Calma 5 Sur 0 -- -- 72
2020-04-04 06:00:00 18.5 2 Oeste 8 Oeste 0 -- -- 70
2020-04-04 05:00:00 18.1 0 Calma 5 Norte 0 -- -- 73
2020-04-04 04:00:00 18.3 0 Calma 10 Sur 0 -- -- 73
2020-04-04 03:00:00 18.7 9 Sur 13 Sur 0 -- -- 71
2020-04-04 02:00:00 18.5 5 Sudoeste 9 Sur 0 -- -- 74
2020-04-04 01:00:00 18.3 5 Sudoeste 12 Sur 0 -- -- 75
2020-04-04 00:00:00 18.7 8 Sudeste 12 Sur 0 -- -- 75
2020-04-03 23:00:00 19.1 7 Sudeste 14 Sudeste 0 -- -- 72
2020-04-03 22:00:00 20.5 0 Calma 9 Sudeste 0 -- -- 68
2020-04-03 21:00:00 19.4 0 Calma 15 Nordeste 0 -- -- 69
2020-04-03 20:00:00 19.5 7 Nordeste 18 Nordeste 0 -- -- 68
2020-04-03 19:00:00 20.5 8 Nordeste 18 Nordeste 0 -- -- 63
2020-04-03 18:00:00 20.1 11 Nordeste 18 Nordeste 0 -- -- 62
2020-04-03 17:00:00 21.1 6 Este 24 Sudeste 0 -- -- 62
2020-04-03 16:00:00 21.8 9 Este 33 Sudeste 0 -- -- 62
2020-04-03 15:00:00 21.2 4 Sudeste 17 Este 0 -- -- 63
2020-04-03 14:00:00 21.3 5 Este 16 Sudeste 0 -- -- 61
2020-04-03 13:00:00 21.1 0 Calma 19 Sudeste 0 -- -- 59
2020-04-03 12:00:00 22.7 4 Este 13 Sudeste 0 -- -- 53
2020-04-03 11:00:00 22 2 Sudeste 10 Este 0 -- -- 58
2020-04-03 10:00:00 19.1 2 Sudeste 7 Sur 0 -- -- 67
2020-04-03 09:00:00 17.8 0 Calma -- -- 0 -- -- 71
2020-04-03 08:00:00 16.4 0 Calma -- -- 0 -- -- 73
2020-04-03 07:00:00 16.3 0 Calma -- -- 0 -- -- 72
2020-04-03 06:00:00 16.7 0 Calma -- -- 0 -- -- 72
2020-04-03 05:00:00 16.6 0 Calma 7 Sur 0 -- -- 70
2020-04-03 04:00:00 17 5 Sur 8 Sudeste 0 -- -- 70
2020-04-03 03:00:00 17.4 0 Calma 6 Sudeste 0 -- -- 69
2020-04-03 02:00:00 17.3 3 Sudeste 7 Este 0 -- -- 69
2020-04-03 01:00:00 17.2 0 Calma 10 Nordeste 0 -- -- 69
2020-04-03 00:00:00 17.5 5 Nordeste 13 Nordeste 0 -- -- 68
2020-04-02 23:00:00 17.6 8 Nordeste 14 Nordeste 0 -- -- 68
2020-04-02 22:00:00 17.7 5 Norte 15 Nordeste 0 -- -- 68
2020-04-02 21:00:00 17.9 5 Norte 24 Nordeste 0 -- -- 68
2020-04-02 20:00:00 18.1 9 Nordeste 20 Nordeste 0 -- -- 67
2020-04-02 19:00:00 18.8 10 Nordeste 19 Nordeste 0 -- -- 63
2020-04-02 18:00:00 19.2 11 Nordeste 19 Nordeste 0 -- -- 62
2020-04-02 17:00:00 20.2 10 Nordeste 21 Nordeste 0 -- -- 61
2020-04-02 16:00:00 20.6 12 Nordeste 23 Nordeste 0 -- -- 59
2020-04-02 15:00:00 20.3 11 Nordeste 22 Nordeste 0 -- -- 61
2020-04-02 14:00:00 21 12 Nordeste 21 Nordeste 0 -- -- 59
2020-04-02 13:00:00 19.9 13 Nordeste 19 Nordeste 0 -- -- 62
2020-04-02 12:00:00 19.6 5 Nordeste 11 Nordeste 0 -- -- 64
2020-04-02 11:00:00 21.8 2 Este 12 Norte 0 -- -- 56
2020-04-02 10:00:00 20.3 7 Nordeste 13 Nordeste 0 -- -- 62
2020-04-02 09:00:00 18.6 5 Noroeste 11 Noroeste 0 -- -- 68
2020-04-02 08:00:00 17.6 5 Noroeste 11 Noroeste 0 -- -- 71
2020-04-02 07:00:00 17.3 8 Noroeste 14 Oeste 0 -- -- 72
2020-04-02 06:00:00 17.1 4 Noroeste 17 Oeste 0 -- -- 71
2020-04-02 05:00:00 17.1 9 Oeste 16 Noroeste 0 -- -- 71
2020-04-02 04:00:00 17.1 7 Oeste 17 Oeste 0 -- -- 71
2020-04-02 03:00:00 17 9 Oeste 16 Oeste 0 -- -- 70
2020-04-02 02:00:00 17.2 9 Oeste 14 Oeste 0 -- -- 70
2020-04-02 01:00:00 17.5 6 Noroeste 12 Noroeste 0 -- -- 69
2020-04-02 00:00:00 17.9 5 Norte 13 Nordeste 0 -- -- 69
2020-04-01 23:00:00 18 7 Norte 15 Noroeste 0 -- -- 68
2020-04-01 22:00:00 18 10 Norte 15 Noroeste 0 -- -- 68
2020-04-01 21:00:00 18 9 Norte 18 Nordeste 0 -- -- 67
2020-04-01 20:00:00 18.3 9 Norte 20 Norte 0 -- -- 67
2020-04-01 19:00:00 18.4 11 Norte 19 Norte 0 -- -- 67
2020-04-01 18:00:00 18.7 8 Norte 20 Nordeste 0 -- -- 63
2020-04-01 17:00:00 19.3 7 Nordeste 18 Nordeste 0 -- -- 63
2020-04-01 16:00:00 19.3 9 Nordeste 19 Nordeste 0 -- -- 65
2020-04-01 15:00:00 19.4 10 Nordeste 24 Nordeste 0 -- -- 63
2020-04-01 14:00:00 19.4 13 Nordeste 22 Nordeste 0 -- -- 62
2020-04-01 13:00:00 20.6 12 Nordeste 21 Nordeste 0 -- -- 62
2020-04-01 12:00:00 19 13 Nordeste 19 Nordeste 0 -- -- 64
2020-04-01 11:00:00 19.5 5 Nordeste 10 Norte 0 -- -- 67
2020-04-01 10:00:00 18.5 6 Nordeste 10 Nordeste 0 -- -- 68
2020-04-01 09:00:00 18.5 0 Calma 11 Noroeste 0 -- -- 70
2020-04-01 08:00:00 17.3 6 Noroeste 19 Norte 0 -- -- 73
2020-04-01 07:00:00 17.5 9 Norte 17 Noroeste 0 -- -- 74
2020-04-01 06:00:00 17.6 8 Noroeste 15 Norte 0 -- -- 75
2020-04-01 05:00:00 17.7 10 Noroeste 17 Noroeste 0 -- -- 74
2020-04-01 04:00:00 17.8 8 Noroeste 15 Noroeste 0 -- -- 74
2020-04-01 03:00:00 18.1 8 Noroeste 15 Noroeste 0 -- -- 72
2020-04-01 02:00:00 18.2 8 Norte 15 Norte 0 -- -- 73
2020-04-01 01:00:00 18.3 5 Norte 12 Norte 0 -- -- 73
2020-04-01 00:00:00 18.5 7 Noroeste 13 Noroeste 0 -- -- 71
2020-03-31 23:00:00 18.4 8 Noroeste 15 Noroeste 0 -- -- 74
2020-03-31 22:00:00 18.5 2 Norte 8 Nordeste 0 -- -- 74
2020-03-31 21:00:00 19.1 0 Calma 6 Nordeste 0 -- -- 70
2020-03-31 20:00:00 19.2 3 Sudeste 6 Nordeste 0 -- -- 69
2020-03-31 19:00:00 20 0 Calma 7 Este 0 -- -- 69
2020-03-31 18:00:00 19.4 0 Calma 9 Nordeste 0 -- -- 69
2020-03-31 17:00:00 19.3 6 Nordeste 9 Nordeste 0 -- -- 69
2020-03-31 16:00:00 19.4 5 Nordeste 10 Nordeste 0 -- -- 67
2020-03-31 15:00:00 19.6 7 Nordeste 18 Nordeste 0 -- -- 65
2020-03-31 14:00:00 20.9 5 Norte 16 Noroeste 0 -- -- 65
2020-03-31 13:00:00 19.6 9 Noroeste 19 Noroeste 0 -- -- 66
2020-03-31 12:00:00 20.1 13 Norte 22 Norte 0 -- -- 63
2020-03-31 11:00:00 21.5 9 Nordeste 13 Nordeste 0 -- -- 60
2020-03-31 10:00:00 24.2 5 Sudeste 8 Sudeste 0 -- -- 52
2020-03-31 09:00:00 18.1 6 Sudoeste 13 Oeste 0 -- -- 67
2020-03-31 08:00:00 16.8 11 Oeste 16 Oeste 0 -- -- 68
2020-03-31 07:00:00 17.1 13 Oeste 17 Oeste 0 -- -- 69
2020-03-31 06:00:00 17.2 6 Oeste 13 Oeste 0 -- -- 70
2020-03-31 05:00:00 17.6 2 Sudoeste 19 Sudoeste 0 -- -- 70
2020-03-31 04:00:00 17.2 4 Oeste 16 Noroeste 0 -- -- 73
2020-03-31 03:00:00 17.8 6 Noroeste 18 Norte 0 -- -- 71
2020-03-31 02:00:00 18 13 Noroeste 21 Norte 0 -- -- 70
2020-03-31 01:00:00 18 10 Noroeste 16 Noroeste 0 -- -- 68
2020-03-31 00:00:00 17.4 2 Oeste 8 Oeste 0 -- -- 73
2020-03-30 23:00:00 17.6 0 Calma 5 Sudoeste 0 -- -- 74
2020-03-30 22:00:00 17.9 0 Calma 11 Nordeste 0 -- -- 73
2020-03-30 21:00:00 18.1 6 Norte 10 Norte 0 -- -- 72
2020-03-30 20:00:00 18.5 4 Nordeste 10 Nordeste 0 -- -- 69
2020-03-30 19:00:00 19.1 6 Este 10 Este 0 -- -- 67
2020-03-30 18:00:00 20.5 3 Este 12 Sudeste 0 -- -- 61
2020-03-30 17:00:00 21.8 3 Este 12 Sudeste 0 -- -- 57
2020-03-30 16:00:00 20.8 7 Sudeste 15 Sudeste 0 -- -- 61
2020-03-30 15:00:00 20.3 5 Sudeste 10 Sudeste 0 -- -- 61
2020-03-30 14:00:00 22.7 0 Calma 11 Sur 0 -- -- 53
2020-03-30 13:00:00 23.7 3 Sudeste 11 Este 0 -- -- 52
2020-03-30 12:00:00 21.9 8 Este 12 Este 0 -- -- 56
2020-03-30 11:00:00 21.7 7 Nordeste 13 Nordeste 0 -- -- 60
2020-03-30 10:00:00 21.9 0 Calma 10 Oeste 0 -- -- 56
2020-03-30 09:00:00 17.7 8 Oeste 14 Oeste 0 -- -- 67
2020-03-30 08:00:00 16 11 Oeste 15 Oeste 0 -- -- 71
2020-03-30 07:00:00 16.9 13 Oeste 19 Oeste 0 -- -- 71
2020-03-30 06:00:00 15.6 12 Oeste 16 Oeste 0 -- -- 74
2020-03-30 05:00:00 16.2 11 Oeste 17 Oeste 0 -- -- 73
2020-03-30 04:00:00 15.9 12 Oeste 16 Oeste 0 -- -- 73
2020-03-30 03:00:00 16.5 10 Oeste 14 Oeste 0 -- -- 71
2020-03-30 02:00:00 16.7 9 Oeste 12 Oeste 0 -- -- 71
2020-03-30 01:00:00 16.9 8 Oeste 13 Oeste 0 -- -- 70
2020-03-30 00:00:00 17.1 9 Oeste 11 Oeste 0 -- -- 69
2020-03-29 23:00:00 17.6 4 Oeste 10 Noroeste 0 -- -- 68
2020-03-29 22:00:00 18 2 Noroeste 13 Noroeste 0 -- -- 65
2020-03-29 21:00:00 18 8 Noroeste 14 Noroeste 0 -- -- 64
2020-03-29 20:00:00 18.3 5 Noroeste 13 Norte 0 -- -- 62
2020-03-29 19:00:00 18.7 5 Nordeste 10 Este 0 -- -- 61
2020-03-29 18:00:00 20.6 4 Este 11 Sudeste 0 -- -- 54
2020-03-29 17:00:00 21.5 5 Sudeste 13 Sudeste 0 -- -- 53
2020-03-29 16:00:00 21.2 4 Sudeste 10 Este 0 -- -- 56
2020-03-29 15:00:00 21.8 4 Sudeste 11 Este 0 -- -- 55
2020-03-29 14:00:00 22 3 Este 14 Este 0 -- -- 54
2020-03-29 13:00:00 20.7 7 Nordeste 14 Este 0 -- -- 57
2020-03-29 12:00:00 18.8 10 Nordeste 14 Nordeste 0 -- -- 62
2020-03-29 11:00:00 19.3 8 Este 12 Nordeste 0 -- -- 61
2020-03-29 10:00:00 19.9 2 Norte 8 Oeste 0 -- -- 58
2020-03-29 09:00:00 17 8 Oeste 11 Oeste 0 -- -- 68
2020-03-29 08:00:00 16 10 Oeste 14 Oeste 0 -- -- 70
2020-03-29 07:00:00 15.6 11 Oeste 15 Oeste 0 -- -- 71
2020-03-29 06:00:00 15.7 10 Oeste 15 Oeste 0 -- -- 70
2020-03-29 05:00:00 15.9 9 Oeste 14 Oeste 0 -- -- 70
2020-03-29 04:00:00 15.8 10 Oeste 15 Oeste 0 -- -- 70
2020-03-29 00:00:00 16.3 10 Oeste 17 Oeste 0 -- -- 69
2020-03-28 23:00:00 16.4 9 Oeste 13 Oeste 0 -- -- 69
2020-03-28 22:00:00 16.8 8 Oeste 14 Noroeste 0 -- -- 69
2020-03-28 21:00:00 17.5 8 Noroeste 17 Noroeste 0 -- -- 67
2020-03-28 20:00:00 17.5 11 Noroeste 19 Noroeste 0 -- -- 67
2020-03-28 19:00:00 17.7 15 Noroeste 25 Noroeste 0 -- -- 64
2020-03-28 18:00:00 19.4 9 Noroeste 22 Oeste 0 -- -- 61
2020-03-28 17:00:00 20 14 Noroeste 27 Nordeste 0 -- -- 58
2020-03-28 16:00:00 18.9 13 Norte 24 Nordeste 0 -- -- 61
2020-03-28 15:00:00 18.5 15 Norte 26 Norte 0 -- -- 61
2020-03-28 14:00:00 18.5 13 Noroeste 26 Noroeste 0 -- -- 58
2020-03-28 13:00:00 20.6 11 Noroeste 26 Noroeste 0 -- -- 57
2020-03-28 12:00:00 17.9 15 Noroeste 32 Noroeste 0 -- -- 63
2020-03-28 11:00:00 18.2 16 Noroeste 29 Noroeste 0 -- -- 63
2020-03-28 10:00:00 18.6 18 Noroeste 32 Noroeste 0 -- -- 63
2020-03-28 09:00:00 17 14 Noroeste 23 Noroeste 0 -- -- 65
2020-03-28 08:00:00 17 12 Oeste 28 Noroeste 0 -- -- 70
2020-03-28 07:00:00 15.8 10 Noroeste 26 Noroeste 0 -- -- 73
2020-03-28 06:00:00 15.7 11 Noroeste 35 Oeste 0 -- -- 74
2020-03-28 05:00:00 15.5 14 Noroeste 31 Oeste 0 -- -- 75
2020-03-28 04:00:00 15.6 12 Noroeste 40 Oeste 0 -- -- 75
2020-03-28 03:00:00 15.9 18 Noroeste 44 Noroeste 0 -- -- 75
2020-03-28 02:00:00 16.3 18 Noroeste 34 Noroeste 0.1 -- -- 73
2020-03-28 01:00:00 16.3 9 Noroeste 24 Noroeste 0 -- -- 78
2020-03-28 00:00:00 15.7 5 Noroeste 21 Oeste 1.2 -- -- 82
2020-03-27 23:00:00 15 9 Oeste 19 Noroeste 3.2 -- -- 84
2020-03-27 22:00:00 15.5 11 Noroeste 21 Norte 3.7 -- -- 81
2020-03-27 21:00:00 16.6 11 Sur 17 Sur 0 -- -- 78
2020-03-27 20:00:00 16.8 13 Sur 16 Sudeste 0 -- -- 78
2020-03-27 19:00:00 17.4 10 Sudeste 19 Sudeste 0 -- -- 77
2020-03-27 18:00:00 17 8 Sur 22 Oeste 5.3 -- -- 76
2020-03-27 17:00:00 18.4 7 Noroeste 27 Oeste 0 -- -- 64
2020-03-27 16:00:00 19.1 13 Noroeste 31 Noroeste 0 -- -- 61
2020-03-27 15:00:00 18.3 17 Noroeste 36 Noroeste 0 -- -- 59
2020-03-27 14:00:00 18.4 21 Noroeste 36 Noroeste 0 -- -- 62
2020-03-27 13:00:00 18.6 16 Noroeste 32 Noroeste 0 -- -- 59
2020-03-27 12:00:00 17.6 20 Noroeste 33 Noroeste 0 -- -- 62
2020-03-27 11:00:00 18.3 18 Noroeste 46 Noroeste 0 -- -- 63
2020-03-27 10:00:00 17 20 Noroeste 39 Oeste 0 -- -- 69
2020-03-27 09:00:00 17.1 21 Noroeste 32 Noroeste 0 -- -- 64
2020-03-27 08:00:00 16.4 13 Noroeste 26 Norte 0 -- -- 70
2020-03-27 07:00:00 16.2 13 Noroeste 23 Noroeste 0 -- -- 65
2020-03-27 06:00:00 15.7 6 Oeste 27 Oeste 0 -- -- 67
2020-03-27 05:00:00 14.7 16 Oeste 35 Oeste 0 -- -- 71
2020-03-27 04:00:00 15.8 12 Noroeste 22 Oeste 0 -- -- 65
2020-03-27 03:00:00 15.6 7 Oeste 18 Oeste 0 -- -- 67
2020-03-27 02:00:00 15.9 5 Oeste 18 Noroeste 0 -- -- 65
2020-03-27 01:00:00 15.9 8 Oeste 14 Oeste 0 -- -- 67
2020-03-27 00:00:00 16.4 7 Oeste 14 Oeste 0 -- -- 65
2020-03-26 23:00:00 16.5 6 Oeste 15 Noroeste 0 -- -- 65
2020-03-26 22:00:00 17.8 6 Noroeste 13 Noroeste 0 -- -- 62
2020-03-26 21:00:00 17.1 9 Noroeste 17 Noroeste 0 -- -- 63
2020-03-26 20:00:00 17.3 10 Noroeste 18 Noroeste 0 -- -- 63
2020-03-26 19:00:00 17.6 8 Nordeste 15 Nordeste 0 -- -- 63
2020-03-26 18:00:00 19.6 6 Nordeste 15 Nordeste 0 -- -- 61
2020-03-26 17:00:00 18.3 8 Nordeste 16 Nordeste 0 -- -- 60
2020-03-26 16:00:00 19 9 Nordeste 14 Nordeste 0 -- -- 58
2020-03-26 15:00:00 18.8 4 Nordeste 17 Nordeste 0 -- -- 58
2020-03-26 14:00:00 18.6 10 Nordeste 21 Nordeste 0 -- -- 59
2020-03-26 13:00:00 19.2 13 Nordeste 20 Nordeste 0 -- -- 59
2020-03-26 12:00:00 19 11 Nordeste 19 Nordeste 0 -- -- 59
2020-03-26 11:00:00 18 10 Nordeste 19 Nordeste 0 -- -- 63
2020-03-26 10:00:00 20.8 12 Nordeste 20 Nordeste 0 -- -- 57
2020-03-26 09:00:00 21 3 Oeste 10 Noroeste 0 -- -- 56
2020-03-26 08:00:00 16.9 7 Oeste 17 Oeste 0 -- -- 63
2020-03-26 07:00:00 15.9 9 Oeste 13 Oeste 0 -- -- 67
2020-03-26 06:00:00 15.9 10 Oeste 13 Oeste 0 -- -- 67
2020-03-26 05:00:00 16.2 9 Oeste 11 Noroeste 0 -- -- 67
2020-03-26 04:00:00 16.2 9 Oeste 12 Oeste 0 -- -- 67
2020-03-26 03:00:00 16.4 6 Oeste 13 Oeste 0 -- -- 65
2020-03-26 02:00:00 16.8 5 Norte 16 Nordeste 0 -- -- 65
2020-03-26 01:00:00 16.7 6 Noroeste 12 Nordeste 0 -- -- 65
2020-03-26 00:00:00 17.1 4 Nordeste 12 Nordeste 0 -- -- 64
2020-03-25 23:00:00 17.2 5 Noroeste 17 Noroeste 0 -- -- 63
2020-03-25 22:00:00 16.9 11 Noroeste 18 Norte 0 -- -- 60
2020-03-25 21:00:00 17 12 Norte 19 Norte 0 -- -- 62
2020-03-25 20:00:00 18.2 12 Norte 23 Norte 0 -- -- 63
2020-03-25 19:00:00 17.6 10 Norte 20 Norte 0 -- -- 64
2020-03-25 18:00:00 17.8 10 Nordeste 19 Norte 0 -- -- 62
2020-03-25 17:00:00 18.1 9 Norte 18 Nordeste 0 -- -- 59
2020-03-25 16:00:00 18 10 Nordeste 19 Nordeste 0 -- -- 63
2020-03-25 15:00:00 18.2 10 Nordeste 23 Nordeste 0 -- -- 63
2020-03-25 14:00:00 18.2 12 Norte 26 Nordeste 0 -- -- 63
2020-03-25 13:00:00 18.3 15 Norte 28 Nordeste 0 -- -- 61
2020-03-25 12:00:00 18.2 14 Noroeste 23 Noroeste 0 -- -- 61
2020-03-25 11:00:00 18.8 8 Noroeste 23 Noroeste 0 -- -- 58
2020-03-25 10:00:00 17.2 15 Noroeste 29 Noroeste 0 -- -- 65
2020-03-25 09:00:00 17.1 16 Noroeste 23 Noroeste 0 -- -- 64
2020-03-25 08:00:00 17.6 7 Noroeste 17 Noroeste 0 -- -- 65
2020-03-25 07:00:00 17 9 Noroeste 17 Noroeste 0 -- -- 66
2020-03-25 06:00:00 16.8 10 Noroeste 18 Norte 0 -- -- 65
2020-03-25 05:00:00 16.8 12 Noroeste 21 Noroeste 0 -- -- 67
2020-03-25 04:00:00 16.8 14 Noroeste 23 Noroeste 0 -- -- 67
2020-03-25 03:00:00 17 11 Noroeste 46 Norte 0 -- -- 67
2020-03-25 02:00:00 17.1 15 Noroeste 24 Noroeste 0 -- -- 65
2020-03-25 01:00:00 17.1 16 Noroeste 25 Noroeste 0 -- -- 65
2020-03-25 00:00:00 18 11 Noroeste 24 Norte 0 -- -- 65
2020-03-24 23:00:00 17.4 16 Noroeste 28 Noroeste 0 -- -- 67
2020-03-24 22:00:00 17.3 18 Noroeste 36 Noroeste 0 -- -- 67
2020-03-24 21:00:00 17.4 22 Noroeste 36 Noroeste 0 -- -- 68
2020-03-24 20:00:00 17.5 21 Noroeste 39 Noroeste 0 -- -- 67
2020-03-24 19:00:00 17.4 25 Noroeste 40 Noroeste 0 -- -- 69
2020-03-24 18:00:00 19 20 Noroeste 43 Noroeste 0 -- -- 66
2020-03-24 17:00:00 17.8 28 Noroeste 48 Noroeste 0 -- -- 67
2020-03-24 16:00:00 18.7 24 Noroeste 47 Noroeste 0 -- -- 59
2020-03-24 15:00:00 18.6 31 Noroeste 50 Oeste 0 -- -- 62
2020-03-24 14:00:00 20 25 Noroeste 45 Noroeste 0 -- -- 59
2020-03-24 13:00:00 18.9 26 Noroeste 48 Noroeste 0 -- -- 59
2020-03-24 12:00:00 18.4 23 Noroeste 46 Noroeste 0 -- -- 61
2020-03-24 11:00:00 18.3 27 Noroeste 44 Oeste 0 -- -- 62
2020-03-24 10:00:00 17.7 24 Noroeste 44 Noroeste 0 -- -- 67
2020-03-24 09:00:00 17.4 25 Noroeste 43 Noroeste 0 -- -- 67
2020-03-24 08:00:00 16.5 24 Noroeste 51 Noroeste 0 -- -- 71
2020-03-24 07:00:00 16.6 21 Noroeste 44 Noroeste 0 -- -- 70
2020-03-24 06:00:00 16.5 29 Noroeste 44 Noroeste 0 -- -- 71
2020-03-24 05:00:00 16.5 19 Noroeste 39 Noroeste 0.1 -- -- 71
2020-03-24 04:00:00 16 17 Noroeste 50 Noroeste 0 -- -- 75
2020-03-24 03:00:00 16.9 28 Noroeste 40 Noroeste 0 -- -- 68
2020-03-24 02:00:00 17 28 Noroeste 46 Noroeste 0 -- -- 68
2020-03-24 01:00:00 16.9 29 Noroeste 50 Noroeste 0 -- -- 68
2020-03-24 00:00:00 16.6 28 Noroeste 50 Noroeste 0.3 -- -- 72
2020-03-23 23:00:00 17.1 31 Noroeste 46 Noroeste 0 -- -- 65
2020-03-23 22:00:00 16.9 26 Noroeste 51 Noroeste 0 -- -- 69
2020-03-23 21:00:00 16.9 24 Noroeste 49 Norte 2.3 -- -- 67
2020-03-23 20:00:00 16.8 28 Noroeste 89 Noroeste 0 -- -- 65
2020-03-23 19:00:00 17.2 27 Noroeste 50 Noroeste 0 -- -- 61
2020-03-23 18:00:00 17.3 26 Noroeste 48 Noroeste 0 -- -- 63
2020-03-23 17:00:00 17.5 24 Noroeste 46 Norte 0 -- -- 59
2020-03-23 16:00:00 16.8 26 Noroeste 48 Norte 0 -- -- 61
2020-03-23 15:00:00 17.4 31 Norte 53 Noroeste 0 -- -- 65
2020-03-23 14:00:00 18.1 24 Noroeste 46 Noroeste 0 -- -- 62
2020-03-23 13:00:00 16.7 28 Noroeste 53 Oeste 0.1 -- -- 64
2020-03-23 12:00:00 13.3 32 Noroeste 56 Noroeste 1.2 -- -- 68
2020-03-23 11:00:00 15.7 32 Norte 58 Noroeste 0.3 -- -- 65
2020-03-23 10:00:00 16 28 Noroeste 53 Noroeste 0 -- -- 65
2020-03-23 09:00:00 15 29 Noroeste 59 Noroeste 0 -- -- 68
2020-03-23 08:00:00 14.9 36 Noroeste 73 Noroeste 0.1 -- -- 67
2020-03-23 07:00:00 14.7 40 Noroeste 67 Noroeste 0.3 -- -- 67
2020-03-23 06:00:00 15 28 Noroeste 67 Noroeste 1.6 -- -- 65
2020-03-23 05:00:00 14.5 11 Noroeste 46 Norte 0.1 -- -- 65
2020-03-23 04:00:00 13.6 21 Noroeste 64 Noroeste 0.5 -- -- 68
2020-03-23 03:00:00 15.6 5 Noroeste 36 Noroeste 0 -- -- 61
2020-03-23 02:00:00 15.9 26 Noroeste 45 Noroeste 0 -- -- 64
2020-03-23 01:00:00 15.9 20 Noroeste 42 Noroeste 0 -- -- 64
2020-03-23 00:00:00 16.5 12 Oeste 45 Noroeste 0 -- -- 59
2020-03-22 23:00:00 16.4 13 Oeste 40 Norte 0 -- -- 63
2020-03-22 22:00:00 16.8 18 Oeste 35 Oeste 0 -- -- 58
2020-03-22 21:00:00 16.4 15 Noroeste 37 Noroeste 0 -- -- 62
2020-03-22 20:00:00 15.8 10 Noroeste 50 Noroeste 0.6 -- -- 68
2020-03-22 19:00:00 14.6 31 Noroeste 52 Oeste 0.3 -- -- 78
2020-03-22 18:00:00 15.5 24 Noroeste 45 Noroeste 0.3 -- -- 79
2020-03-22 17:00:00 19.4 12 Sudeste 58 Sudeste 0 -- -- 58
2020-03-22 16:00:00 19.9 16 Sudeste 35 Sur 0 -- -- 56
2020-03-22 15:00:00 19.5 15 Noroeste 36 Noroeste 0 -- -- 53
2020-03-22 14:00:00 18.4 25 Noroeste 41 Noroeste 0 -- -- 56
2020-03-22 13:00:00 18.4 21 Noroeste 37 Norte 0 -- -- 52
2020-03-22 12:00:00 17.8 23 Noroeste 44 Noroeste 0 -- -- 57
2020-03-22 11:00:00 17.5 16 Noroeste 36 Noroeste 0 -- -- 64
2020-03-22 10:00:00 16.3 12 Noroeste 36 Noroeste 0 -- -- 70
2020-03-22 09:00:00 14.8 24 Noroeste 49 Noroeste 0 -- -- 69
2020-03-22 08:00:00 16.1 19 Noroeste 33 Noroeste 0 -- -- 61
2020-03-22 07:00:00 15.9 15 Noroeste 40 Oeste 0 -- -- 62
2020-03-22 06:00:00 16.5 23 Noroeste 35 Noroeste 0 -- -- 59
2020-03-22 05:00:00 15.5 13 Noroeste 33 Noroeste 0 -- -- 68
2020-03-22 04:00:00 15.4 19 Noroeste 44 Noroeste 0 -- -- 64
2020-03-22 03:00:00 16.3 17 Noroeste 32 Noroeste 0 -- -- 59
2020-03-22 02:00:00 16.6 19 Noroeste 38 Noroeste 0 -- -- 58
2020-03-22 01:00:00 16.4 18 Noroeste 32 Noroeste 0 -- -- 62
2020-03-22 00:00:00 16.1 17 Noroeste 35 Norte 0.1 -- -- 65
2020-03-21 23:00:00 16.2 13 Noroeste 28 Noroeste 0 -- -- 67
2020-03-21 22:00:00 15.6 13 Noroeste 42 Noroeste 0.1 -- -- 69
2020-03-21 21:00:00 16 9 Noroeste 33 Noroeste 0 -- -- 64
2020-03-21 20:00:00 15.8 14 Oeste 32 Norte 0 -- -- 62
2020-03-21 19:00:00 17 17 Noroeste 33 Noroeste 0 -- -- 53
2020-03-21 18:00:00 17.1 18 Noroeste 36 Noroeste 0 -- -- 52
2020-03-21 17:00:00 17.5 19 Noroeste 35 Noroeste 0 -- -- 51
2020-03-21 16:00:00 17.4 17 Norte 35 Norte 0 -- -- 56
2020-03-21 15:00:00 17.4 18 Norte 32 Norte 0 -- -- 56
2020-03-21 14:00:00 17.4 18 Noroeste 31 Noroeste 0 -- -- 56
2020-03-21 13:00:00 17.6 18 Norte 35 Norte 0 -- -- 54
2020-03-21 12:00:00 17.4 15 Norte 32 Noroeste 0 -- -- 47
2020-03-21 11:00:00 17.3 14 Noroeste 30 Noroeste 0 -- -- 53
2020-03-21 10:00:00 16.3 14 Noroeste 25 Noroeste 0 -- -- 57
2020-03-21 09:00:00 16.2 14 Noroeste 26 Norte 0 -- -- 57
2020-03-21 08:00:00 16.6 12 Norte 30 Norte 0 -- -- 53
2020-03-21 07:00:00 16.3 14 Norte 27 Norte 0 -- -- 56
2020-03-21 06:00:00 16.5 17 Norte 31 Norte 0 -- -- 54
2020-03-21 05:00:00 16.7 17 Noroeste 29 Norte 0 -- -- 52
2020-03-21 04:00:00 16.6 14 Noroeste 37 Noroeste 0 -- -- 59
2020-03-21 03:00:00 16.6 19 Norte 30 Norte 0.1 -- -- 58
2020-03-21 02:00:00 16.8 19 Norte 34 Norte 0 -- -- 62
2020-03-21 01:00:00 17 19 Norte 33 Norte 0 -- -- 66
2020-03-21 00:00:00 17.1 18 Norte 31 Norte 0 -- -- 69
2020-03-20 23:00:00 17.2 14 Norte 29 Norte 0 -- -- 71
2020-03-20 22:00:00 17.1 17 Norte 31 Noroeste 0 -- -- 71
2020-03-20 21:00:00 16.6 9 Noroeste 28 Norte 0 -- -- 79
2020-03-20 20:00:00 16.1 17 Noroeste 30 Norte 0 -- -- 76
2020-03-20 19:00:00 17.1 18 Norte 34 Oeste 0 -- -- 70
2020-03-20 18:00:00 17.5 16 Noroeste 31 Noroeste 0 -- -- 69
2020-03-20 17:00:00 17.9 15 Noroeste 36 Noroeste 0 -- -- 62
2020-03-20 16:00:00 18.8 21 Noroeste 41 Noroeste 0 -- -- 59
2020-03-20 15:00:00 18.4 19 Noroeste 40 Norte 0 -- -- 58
2020-03-20 14:00:00 17.9 27 Norte 40 Noroeste 0 -- -- 62
2020-03-20 13:00:00 18.7 24 Noroeste 43 Noroeste 0 -- -- 61
2020-03-20 12:00:00 18 26 Noroeste 45 Norte 0 -- -- 62
2020-03-20 11:00:00 18.3 21 Noroeste 41 Norte 0 -- -- 63
2020-03-20 10:00:00 16.8 17 Noroeste 38 Noroeste 0 -- -- 72
2020-03-20 09:00:00 17.7 21 Noroeste 37 Norte 0 -- -- 68
2020-03-20 08:00:00 17.6 16 Noroeste 34 Noroeste 0 -- -- 65
2020-03-20 07:00:00 17.6 18 Noroeste 36 Noroeste 0 -- -- 65
2020-03-20 06:00:00 17.5 25 Noroeste 39 Norte 0 -- -- 68
2020-03-20 05:00:00 17.3 19 Noroeste 30 Noroeste 0 -- -- 70
2020-03-20 04:00:00 17.2 15 Noroeste 34 Noroeste 0 -- -- 73
2020-03-20 03:00:00 17.4 19 Noroeste 34 Noroeste 0 -- -- 74
2020-03-20 02:00:00 17.5 17 Noroeste 33 Noroeste 0 -- -- 71
2020-03-20 01:00:00 17.6 17 Noroeste 38 Noroeste 0 -- -- 73
2020-03-20 00:00:00 17.6 19 Noroeste 37 Noroeste 0 -- -- 73
2020-03-19 23:00:00 17.7 19 Noroeste 38 Noroeste 0 -- -- 72
2020-03-19 22:00:00 17.7 16 Noroeste 39 Noroeste 0 -- -- 72
2020-03-19 21:00:00 18 19 Noroeste 37 Norte 0 -- -- 70
2020-03-19 20:00:00 17.9 23 Noroeste 38 Norte 0 -- -- 72
2020-03-19 19:00:00 18.1 21 Noroeste 42 Noroeste 0 -- -- 71
2020-03-19 18:00:00 18.3 22 Noroeste 37 Norte 0 -- -- 70
2020-03-19 17:00:00 18.4 24 Noroeste 46 Noroeste 0 -- -- 68
2020-03-19 16:00:00 18.5 23 Noroeste 45 Noroeste 0 -- -- 62
2020-03-19 15:00:00 18.2 27 Noroeste 49 Noroeste 0 -- -- 58
2020-03-19 14:00:00 18.3 25 Noroeste 47 Noroeste 0 -- -- 57
2020-03-19 13:00:00 18.5 25 Noroeste 43 Norte 0 -- -- 55
2020-03-19 12:00:00 18.7 25 Noroeste 44 Norte 0 -- -- 57
2020-03-19 11:00:00 18.6 25 Noroeste 55 Noroeste 0 -- -- 70
2020-03-19 10:00:00 18.2 36 Noroeste 55 Noroeste 0 -- -- 70
2020-03-19 09:00:00 18 31 Noroeste 60 Noroeste 0 -- -- 70
2020-03-19 08:00:00 17.4 27 Noroeste 49 Noroeste 0.1 -- -- 73
2020-03-19 07:00:00 17 28 Noroeste 51 Noroeste 0.1 -- -- 73
2020-03-19 06:00:00 17.3 28 Noroeste 54 Noroeste 0 -- -- 70
2020-03-19 05:00:00 17.1 33 Noroeste 60 Noroeste 0 -- -- 68
2020-03-19 04:00:00 17 31 Noroeste 60 Noroeste 0 -- -- 65
2020-03-19 03:00:00 17 36 Noroeste 58 Noroeste 0 -- -- 69
2020-03-19 02:00:00 16.9 33 Noroeste 64 Oeste 0.2 -- -- 71
2020-03-19 01:00:00 17.1 32 Noroeste 62 Noroeste 0 -- -- 67
2020-03-19 00:00:00 17.5 37 Noroeste 64 Noroeste 0 -- -- 59
2020-03-18 23:00:00 17.4 30 Noroeste 56 Noroeste 0 -- -- 58
2020-03-18 22:00:00 18.4 35 Noroeste 66 Noroeste 0 -- -- 57
2020-03-18 21:00:00 17.5 36 Noroeste 70 Noroeste 0 -- -- 59
2020-03-18 20:00:00 16.5 29 Noroeste 55 Noroeste 0 -- -- 68
2020-03-18 19:00:00 16.9 38 Noroeste 57 Noroeste 0 -- -- 65
2020-03-18 18:00:00 17.6 30 Noroeste 54 Noroeste 0 -- -- 59
2020-03-18 17:00:00 17.5 31 Noroeste 56 Noroeste 0 -- -- 58
2020-03-18 16:00:00 18 27 Noroeste 62 Noroeste 0 -- -- 58
2020-03-18 15:00:00 17.7 32 Noroeste 56 Noroeste 0 -- -- 57
2020-03-18 14:00:00 18 27 Noroeste 45 Noroeste 0 -- -- 57
2020-03-18 13:00:00 17.4 32 Noroeste 48 Noroeste 0 -- -- 56
2020-03-18 12:00:00 18 23 Noroeste 41 Noroeste 0 -- -- 53
2020-03-18 11:00:00 18.1 22 Noroeste 46 Noroeste 0 -- -- 57
2020-03-18 10:00:00 16.4 29 Noroeste 45 Noroeste 0 -- -- 59
2020-03-18 09:00:00 16.9 30 Noroeste 48 Noroeste 0 -- -- 54
2020-03-18 08:00:00 15.8 15 Oeste 33 Noroeste 0 -- -- 67
2020-03-18 07:00:00 15.4 24 Noroeste 45 Oeste 0 -- -- 65
2020-03-18 06:00:00 15.5 22 Noroeste 34 Norte 0 -- -- 65
2020-03-18 05:00:00 14.5 18 Oeste 43 Noroeste 0 -- -- 68
2020-03-18 04:00:00 15.6 25 Norte 39 Norte 0.1 -- -- 65
2020-03-18 03:00:00 15.9 20 Noroeste 41 Noroeste 0.1 -- -- 59
2020-03-18 02:00:00 15.9 24 Noroeste 39 Norte 0 -- -- 62
2020-03-18 01:00:00 15.3 16 Noroeste 34 Norte 0 -- -- 71
2020-03-18 00:00:00 14.5 25 Noroeste 41 Noroeste 0.1 -- -- 80
2020-03-17 23:00:00 14.9 22 Noroeste 38 Norte 0.1 -- -- 71
2020-03-17 22:00:00 16.2 18 Noroeste 42 Norte 0 -- -- 63
2020-03-17 21:00:00 15.8 24 Norte 40 Norte 0 -- -- 69
2020-03-17 20:00:00 15.9 22 Norte 41 Norte 0 -- -- 67
2020-03-17 19:00:00 16.1 18 Norte 37 Norte 0 -- -- 65
2020-03-17 18:00:00 16.7 25 Noroeste 41 Noroeste 0 -- -- 58
2020-03-17 17:00:00 17.2 23 Noroeste 37 Noroeste 0 -- -- 56
2020-03-17 16:00:00 16.5 19 Norte 35 Norte 0 -- -- 62
2020-03-17 15:00:00 16.6 19 Norte 34 Nordeste 0 -- -- 63
2020-03-17 14:00:00 16.5 18 Norte 47 Norte 0.1 -- -- 61
2020-03-17 13:00:00 14.6 21 Norte 43 Norte 0 -- -- 73
2020-03-17 12:00:00 17.1 16 Noroeste 43 Norte 0.1 -- -- 62
2020-03-17 11:00:00 16.9 12 Norte 28 Norte 0 -- -- 59
2020-03-17 10:00:00 15.5 20 Norte 35 Nordeste 0 -- -- 63
2020-03-17 09:00:00 15.2 18 Norte 36 Norte 0 -- -- 63
2020-03-17 08:00:00 15.6 19 Noroeste 33 Norte 0 -- -- 63
2020-03-17 07:00:00 15.3 16 Noroeste 37 Noroeste 0 -- -- 64
2020-03-17 06:00:00 15.5 17 Noroeste 40 Norte 0 -- -- 62
2020-03-17 05:00:00 14.6 12 Noroeste 47 Norte 0.1 -- -- 72
2020-03-17 04:00:00 15.1 10 Noroeste 32 Noroeste 0 -- -- 69
2020-03-17 03:00:00 14.7 23 Noroeste 39 Noroeste 0 -- -- 70
2020-03-17 02:00:00 16.1 17 Norte 36 Norte 0 -- -- 54
2020-03-17 01:00:00 16.4 19 Noroeste 40 Norte 0 -- -- 53
2020-03-17 00:00:00 16.6 22 Noroeste 41 Nordeste 0 -- -- 59
2020-03-16 23:00:00 16.7 21 Norte 44 Norte 0 -- -- 63
2020-03-16 22:00:00 16.8 20 Noroeste 49 Norte 0 -- -- 68
2020-03-16 21:00:00 17.1 22 Norte 42 Norte 0 -- -- 68
2020-03-16 20:00:00 17 21 Norte 40 Noroeste 0 -- -- 70
2020-03-16 19:00:00 16.8 19 Norte 40 Norte 0 -- -- 70
2020-03-16 18:00:00 17.3 21 Norte 39 Norte 0 -- -- 70
2020-03-16 17:00:00 17.4 24 Norte 41 Norte 0.1 -- -- 70
2020-03-16 16:00:00 19 19 Noroeste 41 Noroeste 0 -- -- 59
2020-03-16 15:00:00 18.2 18 Norte 37 Norte 0 -- -- 57
2020-03-16 14:00:00 18.8 18 Norte 37 Noroeste 0 -- -- 54
2020-03-16 13:00:00 20.1 17 Norte 40 Norte 0 -- -- 51
2020-03-16 12:00:00 19 18 Norte 35 Norte 0 -- -- 51
2020-03-16 11:00:00 18.7 19 Norte 42 Norte 0 -- -- 53
2020-03-16 10:00:00 18 23 Norte 41 Norte 0 -- -- 56
2020-03-16 09:00:00 17.4 18 Norte 40 Norte 0 -- -- 64
2020-03-16 08:00:00 17.2 19 Norte 35 Noroeste 0 -- -- 65
2020-03-16 07:00:00 16.9 21 Norte 40 Norte 0 -- -- 65
2020-03-16 06:00:00 17.1 19 Noroeste 33 Norte 0 -- -- 65
2020-03-16 05:00:00 17.1 20 Norte 39 Norte 0 -- -- 65
2020-03-16 04:00:00 17.2 17 Norte 35 Norte 0 -- -- 69
2020-03-16 03:00:00 17.5 18 Norte 32 Norte 0 -- -- 69
2020-03-16 02:00:00 17.5 15 Noroeste 30 Norte 0 -- -- 68
2020-03-16 01:00:00 17.5 20 Norte 34 Noroeste 0 -- -- 67
2020-03-16 00:00:00 17.6 16 Noroeste 35 Noroeste 0 -- -- 66
2020-03-15 23:00:00 17.6 21 Norte 35 Norte 0 -- -- 63
2020-03-15 22:00:00 17.7 19 Norte 32 Noroeste 0 -- -- 65
2020-03-15 21:00:00 17.6 21 Norte 32 Noroeste 0 -- -- 63
2020-03-15 20:00:00 17.5 23 Norte 34 Norte 0 -- -- 61
2020-03-15 19:00:00 17.1 18 Noroeste 42 Noroeste 0 -- -- 64
2020-03-15 18:00:00 17.5 26 Noroeste 42 Norte 0 -- -- 64
2020-03-15 17:00:00 17.6 27 Noroeste 43 Noroeste 0 -- -- 63
2020-03-15 16:00:00 17.8 22 Norte 41 Noroeste 0 -- -- 63
2020-03-15 15:00:00 18.9 17 Noroeste 41 Noroeste 0 -- -- 58
2020-03-15 14:00:00 18.4 21 Noroeste 39 Noroeste 0 -- -- 54
2020-03-15 13:00:00 18.5 19 Noroeste 41 Noroeste 0 -- -- 58
2020-03-15 12:00:00 18 19 Norte 36 Noroeste 0 -- -- 59
2020-03-15 11:00:00 17.3 18 Norte 30 Noroeste 0 -- -- 59
2020-03-15 10:00:00 17.2 13 Norte 31 Norte 0 -- -- 66
2020-03-15 09:00:00 15.1 13 Norte 37 Norte 0 -- -- 75
2020-03-15 08:00:00 15.9 21 Noroeste 36 Norte 0 -- -- 71
2020-03-15 07:00:00 16.8 14 Noroeste 30 Noroeste 0 -- -- 63
2020-03-15 06:00:00 17.7 16 Noroeste 30 Norte 0 -- -- 66
2020-03-15 05:00:00 16.7 12 Noroeste 25 Noroeste 0 -- -- 68
2020-03-15 04:00:00 16.5 14 Norte 30 Norte 0 -- -- 68
2020-03-15 03:00:00 17 17 Noroeste 28 Noroeste 0 -- -- 63
2020-03-15 02:00:00 16.8 17 Norte 28 Norte 0 -- -- 65
2020-03-15 01:00:00 17.1 15 Norte 27 Noroeste 0 -- -- 64
2020-03-15 00:00:00 17 15 Noroeste 27 Noroeste 0 -- -- 63
2020-03-14 23:00:00 17 16 Noroeste 28 Noroeste 0 -- -- 62
2020-03-14 22:00:00 17.1 16 Noroeste 30 Noroeste 0 -- -- 61
2020-03-14 21:00:00 17.3 15 Noroeste 29 Noroeste 0 -- -- 59
2020-03-14 20:00:00 17.4 18 Noroeste 27 Noroeste 0 -- -- 59
2020-03-14 19:00:00 17.5 17 Noroeste 38 Noroeste 0 -- -- 58
2020-03-14 18:00:00 18 20 Noroeste 34 Noroeste 0 -- -- 57
2020-03-14 17:00:00 18.9 14 Noroeste 30 Nordeste 0 -- -- 52
2020-03-14 16:00:00 18.5 15 Norte 31 Norte 0 -- -- 52
2020-03-14 15:00:00 18.3 17 Norte 28 Norte 0 -- -- 54
2020-03-14 14:00:00 19 10 Norte 27 Norte 0 -- -- 56
2020-03-14 13:00:00 18.3 14 Norte 26 Norte 0 -- -- 61
2020-03-14 12:00:00 18.4 15 Nordeste 30 Nordeste 0 -- -- 62
2020-03-14 11:00:00 18.3 12 Norte 22 Norte 0 -- -- 63
2020-03-14 10:00:00 17.9 10 Norte 18 Norte 0 -- -- 66
2020-03-14 09:00:00 18.6 10 Norte 20 Noroeste 0 -- -- 64
2020-03-14 08:00:00 17.5 12 Noroeste 24 Noroeste 0 -- -- 66
2020-03-14 07:00:00 17.1 12 Noroeste 24 Noroeste 0 -- -- 65
2020-03-14 06:00:00 17.3 14 Norte 23 Norte 0 -- -- 68
2020-03-14 05:00:00 17.3 11 Norte 21 Norte 0 -- -- 70
2020-03-14 04:00:00 17.3 14 Norte 24 Norte 0 -- -- 70
2020-03-14 03:00:00 17.5 11 Norte 28 Norte 0 -- -- 69
2020-03-14 02:00:00 17.5 11 Norte 25 Norte 0 -- -- 71
2020-03-14 01:00:00 17.8 13 Norte 25 Norte 0 -- -- 73
2020-03-14 00:00:00 17.7 13 Norte 22 Norte 0 -- -- 72
2020-03-13 23:00:00 17.8 13 Noroeste 22 Norte 0 -- -- 69
2020-03-13 22:00:00 17.8 15 Norte 26 Norte 0 -- -- 68
2020-03-13 21:00:00 17.9 14 Norte 24 Norte 0 -- -- 69
2020-03-13 20:00:00 17.8 13 Norte 27 Noroeste 0 -- -- 69
2020-03-13 19:00:00 17.9 13 Norte 26 Norte 0 -- -- 70
2020-03-13 18:00:00 18.3 10 Norte 26 Norte 0 -- -- 68
2020-03-13 17:00:00 19.3 15 Norte 26 Norte 0 -- -- 64
2020-03-13 16:00:00 19.5 16 Norte 27 Norte 0 -- -- 65
2020-03-13 15:00:00 18.8 13 Norte 23 Norte 0 -- -- 64
2020-03-13 14:00:00 20.4 6 Norte 20 Norte 0 -- -- 62
2020-03-13 13:00:00 19 9 Norte 20 Nordeste 0 -- -- 63
2020-03-13 12:00:00 18.6 10 Norte 20 Nordeste 0 -- -- 63
2020-03-13 11:00:00 17.9 12 Norte 21 Norte 0 -- -- 68
2020-03-13 10:00:00 18.4 13 Norte 23 Noroeste 0 -- -- 67
2020-03-13 09:00:00 17.3 11 Norte 23 Norte 0 -- -- 69
2020-03-13 08:00:00 17.6 12 Norte 22 Nordeste 0 -- -- 70
2020-03-13 07:00:00 17.4 12 Noroeste 22 Norte 0 -- -- 70
2020-03-13 06:00:00 17.5 11 Norte 23 Noroeste 0 -- -- 70
2020-03-13 05:00:00 17.4 16 Noroeste 27 Noroeste 0 -- -- 72
2020-03-13 04:00:00 17.5 12 Noroeste 24 Noroeste 0 -- -- 73
2020-03-13 03:00:00 17.5 13 Noroeste 27 Noroeste 0 -- -- 73
2020-03-13 02:00:00 17.5 14 Noroeste 30 Noroeste 0 -- -- 74
2020-03-13 01:00:00 17.6 16 Noroeste 30 Noroeste 0 -- -- 76
2020-03-13 00:00:00 17.7 16 Noroeste 27 Noroeste 0 -- -- 78
2020-03-12 23:00:00 17.8 18 Noroeste 28 Noroeste 0 -- -- 79
2020-03-12 22:00:00 18.3 12 Norte 21 Norte 0 -- -- 78
2020-03-12 21:00:00 18.4 8 Norte 17 Norte 0 -- -- 80
2020-03-12 20:00:00 19.1 8 Norte 17 Norte 0 -- -- 81
2020-03-12 19:00:00 18.2 11 Norte 19 Norte 0 -- -- 81
2020-03-12 18:00:00 19 11 Norte 23 Norte 0 -- -- 79
2020-03-12 17:00:00 19.1 14 Norte 23 Norte 0 -- -- 79
2020-03-12 16:00:00 19.8 12 Norte 24 Norte 0 -- -- 78
2020-03-12 15:00:00 20.7 13 Nordeste 23 Nordeste 0 -- -- 74
2020-03-12 14:00:00 20.8 10 Nordeste 17 Nordeste 0 -- -- 69
2020-03-12 13:00:00 21.7 9 Este 13 Este 0 -- -- 70
2020-03-12 12:00:00 21.7 5 Nordeste 13 Nordeste 0 -- -- 68
2020-03-12 11:00:00 20.5 8 Nordeste 15 Nordeste 0 -- -- 70
2020-03-12 10:00:00 20.6 4 Nordeste 15 Nordeste 0 -- -- 68
2020-03-12 09:00:00 19 6 Norte 16 Oeste 0 -- -- 76
2020-03-12 08:00:00 17 10 Noroeste 19 Oeste 0 -- -- 85
2020-03-12 07:00:00 16.6 11 Noroeste 19 Noroeste 0 -- -- 85
2020-03-12 06:00:00 16.7 12 Noroeste 17 Norte 0 -- -- 78
2020-03-12 05:00:00 18.6 9 Noroeste 12 Noroeste 0 -- -- 45
2020-03-12 04:00:00 17.7 4 Oeste 14 Oeste 0 -- -- 63
2020-03-12 03:00:00 16.6 9 Oeste 18 Oeste 0 -- -- 81
2020-03-12 02:00:00 17.4 9 Noroeste 18 Noroeste 0 -- -- 83
2020-03-12 01:00:00 17 6 Oeste 19 Oeste 0 -- -- 84
2020-03-12 00:00:00 17.6 10 Noroeste 18 Noroeste 0 -- -- 84
2020-03-11 23:00:00 17.7 8 Norte 23 Norte 0 -- -- 86
2020-03-11 22:00:00 18.3 7 Noroeste 18 Noroeste 0 -- -- 86
2020-03-11 21:00:00 19.1 6 Noroeste 10 Noroeste 0 -- -- 84
2020-03-11 20:00:00 18.7 5 Norte 12 Nordeste 0 -- -- 83
2020-03-11 19:00:00 19.4 7 Nordeste 10 Nordeste 0 -- -- 81
2020-03-11 18:00:00 19.6 8 Nordeste -- -- -- -- -- 76
2020-03-11 17:00:00 20.3 10 Nordeste 15 Nordeste 0 -- -- 70
2020-03-11 16:00:00 20.4 8 Nordeste 13 Nordeste 0 -- -- 70
2020-03-11 15:00:00 23.2 6 Este 13 Este 0 -- -- 61
2020-03-11 14:00:00 22.1 8 Este 14 Este 0 -- -- 68
2020-03-11 13:00:00 19.5 10 Nordeste 14 Nordeste 0 -- -- 75
2020-03-11 12:00:00 19.1 5 Nordeste 14 Nordeste 0 -- -- 75
2020-03-11 11:00:00 18.6 6 Noroeste 11 Noroeste 0 -- -- 76
2020-03-11 10:00:00 18.9 0 Calma -- -- 0 -- -- 73
2020-03-11 09:00:00 18.5 0 Calma 5 Nordeste 0 -- -- 73
2020-03-11 08:00:00 17.6 0 Calma 5 Nordeste 0 -- -- 79
2020-03-11 07:00:00 16.7 3 Nordeste 11 Nordeste 0 -- -- 79
2020-03-11 06:00:00 16.9 0 Calma 15 Nordeste 0 -- -- 78
2020-03-11 05:00:00 17.1 4 Este 13 Nordeste 0 -- -- 78
2020-03-11 04:00:00 16.9 2 Noroeste 13 Norte 0 -- -- 79
2020-03-11 03:00:00 17 7 Noroeste 18 Norte 0 -- -- 79
2020-03-11 02:00:00 17 13 Noroeste 20 Noroeste 0 -- -- 79
2020-03-11 01:00:00 17.1 12 Noroeste 20 Norte 0 -- -- 79
2020-03-11 00:00:00 17.4 11 Noroeste 22 Noroeste 0 -- -- 78
2020-03-10 23:00:00 17.6 9 Noroeste 18 Nordeste 0 -- -- 78
2020-03-10 22:00:00 17.7 9 Norte 19 Norte 0 -- -- 79
2020-03-10 21:00:00 17.7 11 Norte 17 Norte 0 -- -- 80
2020-03-10 20:00:00 18.3 9 Norte 17 Norte 0 -- -- 78
2020-03-10 19:00:00 18.8 6 Norte 19 Norte 0 -- -- 75
2020-03-10 18:00:00 19.5 9 Norte 23 Norte 0 -- -- 72
2020-03-10 17:00:00 20.3 11 Norte 23 Nordeste 0 -- -- 70
2020-03-10 16:00:00 20 14 Norte 24 Nordeste 0 -- -- 69
2020-03-10 15:00:00 21.2 7 Norte 23 Nordeste 0 -- -- 66
2020-03-10 14:00:00 21.5 7 Nordeste 19 Nordeste 0 -- -- 63
2020-03-10 13:00:00 20.7 9 Nordeste 18 Nordeste 0 -- -- 63
2020-03-10 12:00:00 19.9 9 Nordeste 18 Nordeste 0 -- -- 67
2020-03-10 11:00:00 20.1 7 Nordeste 17 Nordeste 0 -- -- 67
2020-03-10 10:00:00 18.5 11 Norte 18 Norte 0 -- -- 73
2020-03-10 09:00:00 18.1 9 Norte 15 Noroeste 0 -- -- 73
2020-03-10 08:00:00 17.4 12 Noroeste 22 Noroeste 0 -- -- 74
2020-03-10 07:00:00 15.9 14 Noroeste 24 Oeste 0 -- -- 78
2020-03-10 06:00:00 16.4 14 Noroeste 19 Noroeste 0 -- -- 79
2020-03-10 05:00:00 16.8 13 Noroeste 18 Noroeste 0 -- -- 79
2020-03-10 04:00:00 17.1 13 Norte 19 Noroeste 0 -- -- 79
2020-03-10 03:00:00 16.9 12 Noroeste 23 Noroeste 0 -- -- 80
2020-03-10 02:00:00 17.4 15 Noroeste 21 Noroeste 0 -- -- 79
2020-03-10 01:00:00 17.6 13 Noroeste 22 Noroeste 0 -- -- 78
2020-03-10 00:00:00 18.4 14 Noroeste 25 Oeste 0 -- -- 68
2020-03-09 23:00:00 17.8 13 Oeste 28 Oeste 0 -- -- 75
2020-03-09 22:00:00 18 10 Noroeste 18 Noroeste 0 -- -- 79
2020-03-09 21:00:00 18.1 11 Norte 19 Norte 0 -- -- 80
2020-03-09 20:00:00 18.2 9 Norte 15 Norte 0 -- -- 79
2020-03-09 19:00:00 18.6 6 Norte 18 Norte 0 -- -- 79
2020-03-09 18:00:00 20.7 6 Norte 17 Noroeste 0 -- -- 75
2020-03-09 17:00:00 20.3 8 Norte 18 Nordeste 0 -- -- 72
2020-03-09 16:00:00 20 11 Norte 21 Nordeste 0 -- -- 74
2020-03-09 15:00:00 21.1 8 Nordeste 20 Nordeste 0 -- -- 69
2020-03-09 14:00:00 21.2 8 Nordeste 17 Nordeste 0 -- -- 67
2020-03-09 13:00:00 21.8 9 Nordeste 17 Nordeste 0 -- -- 67
2020-03-09 12:00:00 21 7 Nordeste 19 Nordeste 0 -- -- 64
2020-03-09 11:00:00 21.1 4 Norte 14 Nordeste 0 -- -- 63
2020-03-09 10:00:00 19.3 9 Norte 18 Norte 0 -- -- 70
2020-03-09 09:00:00 18.3 12 Noroeste 27 Noroeste 0 -- -- 76
2020-03-09 08:00:00 17.8 12 Noroeste 27 Noroeste 0 -- -- 76
2020-03-09 07:00:00 18.5 13 Noroeste 18 Oeste 0 -- -- 61
2020-03-09 06:00:00 17.3 9 Oeste 17 Oeste 0 -- -- 70
2020-03-09 05:00:00 17.1 3 Noroeste 15 Noroeste 0 -- -- 78
2020-03-09 04:00:00 17.6 4 Noroeste 17 Noroeste 0 -- -- 78
2020-03-09 03:00:00 17.8 12 Noroeste 22 Noroeste 0 -- -- 78
2020-03-09 02:00:00 17.8 12 Noroeste 24 Noroeste 0 -- -- 78
2020-03-09 01:00:00 17.8 13 Noroeste 26 Noroeste 0 -- -- 79
2020-03-09 00:00:00 18 15 Noroeste 29 Noroeste 0 -- -- 80